Stations météo

réclame
Mon MeteoGroup
Herwijnen aws, Pays-Bas (6356): Température de l'air & dewpoint: 18.10.2018 07:00:00 - 24.10.2018 07:00:00 (CEST)Herwijnen aws, Pays-Bas (6356): Température de l'air 5cm: 18.10.2018 07:00:00 - 24.10.2018 07:00:00 (CEST)Herwijnen aws, Pays-Bas (6356): Vitesse du vent & gusts: 18.10.2018 07:00:00 - 24.10.2018 07:00:00 (CEST)Herwijnen aws, Pays-Bas (6356): Direction du vent: 18.10.2018 07:00:00 - 24.10.2018 07:00:00 (CEST)Herwijnen aws, Pays-Bas (6356): reduced air pressure: 18.10.2018 07:00:00 - 24.10.2018 07:00:00 (CEST)Herwijnen aws, Pays-Bas (6356): Quantités de précipitations: 18.10.2018 07:00:00 - 24.10.2018 07:00:00 (CEST)
Date & Time tt [°C] td [°C] tt 5cm [°C] ff [km/h] ff [knt] fx [km/h] fx [knt] dd ppp [hPa] rr [mm]
24.10.2018 07:00:00 15,0 12,4 14,6 24 13 - - WNW 1022,9 -
24.10.2018 06:00:00 14,9 12,4 14,6 25 14 40 21 WNW 1022,7 0,0
24.10.2018 05:00:00 14,9 12,2 14,7 29 16 43 23 WNW 1022,5 0,0
24.10.2018 04:00:00 14,6 12,0 14,4 25 14 40 21 WNW 1022,7 0,0
24.10.2018 03:00:00 14,4 11,6 14,2 25 14 40 21 WNW 1022,8 0,0
24.10.2018 02:00:00 14,3 11,3 14,1 36 19 47 25 W 1022,7 0,0
24.10.2018 01:00:00 14,3 11,4 14,1 29 16 40 21 W 1022,9 0,0
24.10.2018 00:00:00 14,5 11,3 14,2 25 14 36 19 W 1023,3 0,0
23.10.2018 23:00:00 14,2 11,2 13,9 25 14 36 19 W 1023,4 0,0
23.10.2018 22:00:00 14,8 11,1 14,4 25 14 36 19 WNW 1023,3 0,0
23.10.2018 21:00:00 14,5 10,7 14,2 22 12 36 19 WNW 1023,6 0,0
23.10.2018 20:00:00 14,2 10,1 13,7 22 12 32 18 WNW 1023,6 0,0
23.10.2018 19:00:00 13,9 9,6 13,6 22 12 43 23 WNW 1023,6 0,0
23.10.2018 18:00:00 13,8 9,4 13,6 25 14 43 23 WNW 1023,4 0,0
23.10.2018 17:00:00 13,7 9,2 13,6 29 16 47 25 WNW 1023,5 0,0
23.10.2018 16:00:00 13,7 9,1 13,8 32 18 50 27 W 1023,3 0,0
23.10.2018 15:00:00 14,0 9,2 14,2 40 21 54 29 W 1023,6 0,0
23.10.2018 14:00:00 14,2 9,1 15,0 36 19 50 27 W 1023,7 0,0
23.10.2018 13:00:00 13,6 9,3 13,9 29 16 47 25 W 1024,3 0,0
23.10.2018 12:00:00 13,9 8,9 14,3 36 19 50 27 W 1024,2 0,0
23.10.2018 11:00:00 12,7 8,4 12,7 29 16 43 23 W 1025,2 0,0
23.10.2018 10:00:00 12,0 8,3 11,8 29 16 43 23 W 1025,6 0,0
23.10.2018 09:00:00 11,3 8,3 10,7 22 12 29 16 W 1026,0 0,0
23.10.2018 08:00:00 10,9 8,2 10,5 18 10 32 18 W 1026,5 0,0
23.10.2018 07:00:00 10,8 8,2 10,2 22 12 32 18 W 1026,4 0,0
23.10.2018 06:00:00 9,0 7,0 8,1 14 8 25 14 SW 1027,3 0,0
23.10.2018 05:00:00 8,4 6,4 7,5 18 10 25 14 SW 1028,5 0,0
23.10.2018 04:00:00 7,5 5,5 6,4 14 8 22 12 WSW 1030,0 0,0
23.10.2018 03:00:00 7,2 5,3 5,7 14 8 22 12 SW 1030,4 0,0
23.10.2018 02:00:00 5,3 4,0 0,9 11 6 14 8 SW 1032,1 0,0
23.10.2018 01:00:00 3,7 2,9 0,5 7 4 14 8 WSW 1033,0 0,0
23.10.2018 00:00:00 3,5 3,0 0,3 7 4 7 4 WSW 1033,8 0,0
22.10.2018 23:00:00 4,2 3,5 0,7 7 4 7 4 W 1034,2 0,0
22.10.2018 22:00:00 3,3 3,1 0,4 4 2 11 6 WSW 1034,5 0,0
22.10.2018 21:00:00 5,3 3,5 1,4 4 2 7 4 WSW 1034,2 0,0
22.10.2018 20:00:00 6,7 4,1 3,5 4 2 11 6 NW 1034,4 0,0
22.10.2018 19:00:00 9,7 4,5 6,2 7 4 11 6 NNW 1034,0 0,0
22.10.2018 18:00:00 12,1 5,1 11,0 7 4 25 14 N 1033,9 0,0
22.10.2018 17:00:00 14,0 6,2 13,8 14 8 29 16 N 1033,9 0,0
22.10.2018 16:00:00 14,8 6,8 15,7 11 6 29 16 N 1033,0 0,0
22.10.2018 15:00:00 14,3 7,7 16,0 18 10 29 16 N 1033,2 0,0
22.10.2018 14:00:00 15,3 7,7 15,2 11 6 25 14 NNW 1033,0 0,0
22.10.2018 13:00:00 15,1 7,0 15,3 14 8 29 16 N 1033,2 0,0
22.10.2018 12:00:00 14,3 8,2 15,2 14 8 29 16 N 1033,1 0,0
22.10.2018 11:00:00 13,4 8,5 12,9 14 8 29 16 N 1032,7 0,0
22.10.2018 10:00:00 12,4 9,4 11,9 14 8 25 14 N 1031,9 0,0
22.10.2018 09:00:00 11,8 11,2 11,7 18 10 32 18 N 1030,8 0,2
22.10.2018 08:00:00 12,7 11,2 12,2 7 4 22 12 N 1029,7 0,0
22.10.2018 07:00:00 12,7 11,7 12,4 11 6 22 12 N 1028,9 0,0
22.10.2018 06:00:00 12,8 12,3 12,8 14 8 29 16 N 1028,2 0,0
22.10.2018 05:00:00 13,3 12,9 13,1 11 6 25 14 N 1027,6 0,0
22.10.2018 04:00:00 13,5 11,9 13,0 11 6 14 8 NW 1027,2 0,0
22.10.2018 03:00:00 11,7 9,8 10,6 7 4 7 4 W 1027,0 0,0
22.10.2018 02:00:00 10,0 8,3 8,1 4 2 7 4 WSW 1026,8 0,0
22.10.2018 01:00:00 12,0 9,4 11,0 4 2 7 4 WSW 1027,0 0,0
22.10.2018 00:00:00 12,0 9,5 11,3 4 2 7 4 WSW 1026,8 0,0
21.10.2018 23:00:00 12,3 9,6 11,2 4 2 7 4 S 1026,7 0,0
21.10.2018 22:00:00 11,7 9,3 10,5 4 2 4 2 SSW 1026,6 0,0
21.10.2018 21:00:00 11,1 8,7 8,7 4 2 4 2 SSW 1026,5 0,0
21.10.2018 20:00:00 13,7 9,4 13,0 4 2 7 4 S 1026,4 0,0
21.10.2018 19:00:00 14,6 8,9 14,0 7 4 11 6 S 1026,4 0,0
21.10.2018 18:00:00 15,5 9,0 15,5 7 4 14 8 S 1026,6 0,0
21.10.2018 17:00:00 16,3 8,4 17,4 7 4 14 8 S 1026,9 0,0
21.10.2018 16:00:00 16,2 8,6 17,8 11 6 14 8 SSE 1027,4 0,0
21.10.2018 15:00:00 16,2 8,1 18,6 7 4 14 8 SSW 1027,7 0,0
21.10.2018 14:00:00 15,0 8,2 17,0 11 6 18 10 SSE 1028,2 0,0
21.10.2018 13:00:00 14,8 8,3 16,3 11 6 14 8 S 1029,0 0,0
21.10.2018 12:00:00 13,2 8,5 14,3 7 4 14 8 S 1029,5 0,0
21.10.2018 11:00:00 11,9 8,4 12,5 7 4 14 8 S 1029,6 0,0
21.10.2018 10:00:00 10,4 8,3 9,8 7 4 14 8 S 1029,4 0,0
21.10.2018 09:00:00 8,3 7,6 7,3 4 2 7 4 WSW 1029,3 0,0
21.10.2018 08:00:00 8,1 7,6 7,9 4 2 7 4 SSW 1029,0 0,0
21.10.2018 07:00:00 7,1 6,9 6,0 0 0 7 4 N 1029,2 0,0
21.10.2018 06:00:00 6,6 6,2 4,8 7 4 11 6 S 1029,4 0,0
21.10.2018 05:00:00 6,3 6,1 4,9 4 2 7 4 SSE 1029,8 0,0
21.10.2018 04:00:00 5,8 5,6 2,9 4 2 7 4 SSW 1029,9 0,0
21.10.2018 03:00:00 5,7 5,6 3,6 4 2 4 2 SE 1030,1 0,0
21.10.2018 02:00:00 5,8 5,6 3,8 4 2 4 2 SE 1030,6 0,0
21.10.2018 01:00:00 6,9 6,7 4,0 0 0 4 2 N 1030,8 0,0
21.10.2018 00:00:00 7,1 6,6 4,6 4 2 4 2 W 1031,0 0,0
20.10.2018 23:00:00 9,6 7,2 7,1 4 2 11 6 SW 1031,1 0,0
20.10.2018 22:00:00 10,7 8,3 9,6 4 2 7 4 SW 1031,2 0,0
20.10.2018 21:00:00 9,5 7,5 7,0 4 2 7 4 WSW 1031,2 0,0
20.10.2018 20:00:00 8,9 6,9 5,6 4 2 7 4 SSW 1031,1 0,0
20.10.2018 19:00:00 11,3 8,4 10,6 4 2 7 4 SW 1030,9 0,0
20.10.2018 18:00:00 13,9 8,4 13,8 4 2 11 6 W 1030,9 0,0
20.10.2018 17:00:00 15,0 7,9 16,4 7 4 18 10 WSW 1030,8 0,0
20.10.2018 16:00:00 15,2 7,7 17,7 11 6 18 10 WSW 1031,3 0,0
20.10.2018 15:00:00 15,3 7,6 17,6 7 4 14 8 WSW 1031,3 0,0
20.10.2018 14:00:00 14,6 7,1 17,5 11 6 14 8 SW 1031,6 0,0
20.10.2018 13:00:00 13,7 7,3 15,5 7 4 11 6 W 1032,2 0,0
20.10.2018 12:00:00 13,0 8,5 13,9 7 4 11 6 S 1031,6 0,0
20.10.2018 11:00:00 12,2 8,3 13,4 7 4 11 6 S 1031,5 0,0
20.10.2018 10:00:00 7,9 7,8 8,7 0 0 4 2 N 1031,4 0,0
20.10.2018 09:00:00 4,0 3,9 2,0 4 2 4 2 NW 1030,8 0,0
20.10.2018 08:00:00 2,8 2,7 0,8 4 2 4 2 NNW 1030,3 0,0
20.10.2018 07:00:00 1,5 1,3 0,2 4 2 4 2 NNW 1030,1 0,0
20.10.2018 06:00:00 2,3 2,1 0,3 4 2 4 2 NNW 1029,8 0,0
20.10.2018 05:00:00 2,1 2,0 0,2 4 2 4 2 N 1028,8 0,0
20.10.2018 04:00:00 2,7 2,5 0,1 0 0 4 2 N 1028,6 0,0
20.10.2018 03:00:00 2,2 2,0 -0,2 4 2 7 4 NNW 1028,8 0,0
20.10.2018 02:00:00 3,2 3,1 1,1 4 2 7 4 NW 1028,4 0,0
20.10.2018 01:00:00 5,9 5,8 1,7 0 0 7 4 N 1027,7 0,0
20.10.2018 00:00:00 6,8 6,4 3,6 4 2 4 2 NE 1027,6 0,0
19.10.2018 23:00:00 9,3 8,1 8,1 4 2 11 6 N 1027,4 0,0
19.10.2018 22:00:00 8,1 6,5 4,8 7 4 11 6 N 1027,4 0,0
19.10.2018 21:00:00 8,4 7,0 4,2 4 2 11 6 N 1026,7 0,0
19.10.2018 20:00:00 9,2 7,2 6,4 4 2 18 10 NNW 1026,3 0,0
19.10.2018 19:00:00 11,5 7,8 10,4 11 6 18 10 NNW 1025,7 0,0
19.10.2018 18:00:00 14,5 8,0 14,2 4 2 11 6 NNW 1024,7 0,0
19.10.2018 17:00:00 15,4 8,1 15,6 7 4 14 8 N 1024,7 0,0
19.10.2018 16:00:00 15,8 7,6 17,1 7 4 14 8 N 1024,7 0,0
19.10.2018 15:00:00 15,8 8,7 17,5 7 4 14 8 NE 1024,9 0,0
19.10.2018 14:00:00 14,8 8,9 17,3 7 4 14 8 ENE 1025,1 0,0
19.10.2018 13:00:00 13,9 9,3 16,1 11 6 18 10 E 1025,6 0,0
19.10.2018 12:00:00 12,2 8,6 13,9 7 4 14 8 NE 1025,8 0,0
19.10.2018 11:00:00 10,5 7,8 11,9 7 4 14 8 NE 1025,8 0,0
19.10.2018 10:00:00 8,4 6,6 8,7 7 4 11 6 NE 1025,8 0,0
19.10.2018 09:00:00 6,0 5,4 5,1 7 4 11 6 NE 1025,8 0,0
19.10.2018 08:00:00 6,2 5,2 5,0 7 4 11 6 NE 1025,6 0,0
19.10.2018 07:00:00 6,0 5,2 5,2 7 4 11 6 NNE 1025,5 0,0
19.10.2018 06:00:00 6,0 5,0 4,8 7 4 14 8 NNE 1025,4 0,0
19.10.2018 05:00:00 6,1 5,1 5,0 11 6 14 8 NNE 1025,5 0,0
19.10.2018 04:00:00 6,4 5,3 5,2 11 6 14 8 NNE 1025,5 0,0
19.10.2018 03:00:00 6,4 5,4 4,9 11 6 14 8 NNE 1025,5 0,0
19.10.2018 02:00:00 6,1 5,2 4,6 7 4 11 6 NNE 1025,8 0,0
19.10.2018 01:00:00 7,3 6,1 5,2 7 4 11 6 NNE 1025,9 0,0
19.10.2018 00:00:00 7,6 6,3 5,9 7 4 14 8 NNE 1026,0 0,0
18.10.2018 23:00:00 8,9 6,8 7,1 7 4 14 8 NE 1026,1 0,0
18.10.2018 22:00:00 9,7 7,3 8,2 7 4 14 8 NE 1026,1 0,0
18.10.2018 21:00:00 12,2 8,7 11,5 7 4 14 8 NNE 1025,7 0,0
18.10.2018 20:00:00 12,6 8,8 11,6 7 4 11 6 N 1025,3 0,0
18.10.2018 19:00:00 11,7 7,9 9,4 7 4 14 8 N 1025,0 0,0
18.10.2018 18:00:00 14,5 8,7 13,8 7 4 22 12 N 1024,6 0,0
18.10.2018 17:00:00 15,5 8,7 15,8 11 6 22 12 NNE 1024,7 0,0
18.10.2018 16:00:00 16,3 9,2 17,2 14 8 29 16 N 1024,9 0,0
18.10.2018 15:00:00 16,0 9,0 16,4 14 8 29 16 NNE 1025,0 0,0
18.10.2018 14:00:00 15,7 9,4 16,4 18 10 25 14 N 1025,0 0,0
18.10.2018 13:00:00 15,5 9,6 15,7 18 10 29 16 NNE 1025,3 0,0
18.10.2018 12:00:00 15,6 10,4 16,6 18 10 29 16 NE 1025,3 0,0
18.10.2018 11:00:00 14,6 11,2 14,8 14 8 25 14 NNE 1025,0 0,0
18.10.2018 10:00:00 13,7 11,6 13,5 14 8 22 12 NNE 1024,7 0,0
18.10.2018 09:00:00 13,4 11,8 12,6 7 4 14 8 NNE 1024,1 0,0
18.10.2018 08:00:00 12,9 12,2 12,2 7 4 11 6 N 1023,8 0,0
18.10.2018 07:00:00 11,4 11,3 11,1 4 2 7 4 N 1023,3 0,0

tt = Température de l'air
td = dewpoint
tt 5cm = Température de l'air 5cm
ff = Vitesse du vent
fx = gusts
dd = Direction du vent
ppp = reduced air pressure
rr = Quantités de précipitations

stations d'obs. à proximité